Terminal Aerodrome Forecast
Issued by NWS Sterling, VA

Home | Current Version | Previous Version | Text Only | Print | Product List | Glossary On
Versions: 1 2 3 4 5 6 7 8 9 10 11 12 13 14 15 16 17 18 19
000
FTUS41 KLWX 040714 AAA
TAFMRB
TAF AMD
KMRB 040714Z 0407/0506 VRB03KT P6SM VCTS BKN050CB BKN200
      TEMPO 0407/0409 VRB25KT 2SM TSRA OVC015CB
     FM041000 VRB03KT P6SM SCT050 SCT200
     FM041400 28010G18KT P6SM SCT050
     FM050000 31005KT P6SM FEW250=

USA.gov is the U.S. government's official web portal to all federal, state and local government web resources and services.